ESGT/THN METAR and TAF weather

Enter ICAO airport designator
Station Type Date Time Source
ESGT METAR 2022/07/01 00:50 UTC NOAA

ESGT 010050Z AUTO 05004KT 020V080 9999 FEW068/// BKN084/// OVC098/// 18/15 Q1013


Station Type Date Time Source
ESGT Decoded METAR 2022/07/01 00:50 UTC NOAA

Trollhattan Private , Sweden (ESGT) 58-19N 012-21E
Jun 30, 2022 - 08:50 PM EDT / 2022.07.01 0050 UTC
Wind: from the NE (050 degrees) at 5 MPH (4 KT) (direction variable):0
Visibility: greater than 7 mile(s):0
Sky conditions: overcast
Temperature: 64 F (18 C)
Dew Point: 59 F (15 C)
Relative Humidity: 82%
Pressure (altimeter): 29.91 in. Hg (1013 hPa)
ob: ESGT 010050Z AUTO 05004KT 020V080 9999 FEW068/// BKN084/// OVC098/// 18/15 Q1013
cycle: 1

Station Type Date Time Source
ESGT TAF 2016/08/12 05:58 UTC NOAA

TAF ESGT 120430Z 1205/1224 18007KT 9999 FEW030

Example: see airport list